Hathaway, Montana
Current Conditions -  °F | °C
As of 7:53 AM on Wednesday 22 Oct 2014 (Local Time) from KMLS Reporting Station
Clear Clear  
Wind Chill: 35°   Ceiling: Unl
Heat Index: 42°   Visibility: 10mi
Dew Point: 34°   Wind: 13mph
Humidity: 73%   Direction: 230°SW
Pressure: 29.94"   Gusts: NA
Location:  46.28°N, 106.2°W
Report Text: KMLS 221353Z AUTO 23011KT 10SM CLR 06/01 A2994 RMK AO2 SLP136 T00560011 PWINO $
Loading
Personal Weather Stations






























Interactive Weather Map
Tropical Storm Tracking
New forecast layout! Learn more

10-Day Weather Forecast

Advertisements
Track Severe Weather on mobile